sensor_id;sensor_type;location;lat;lon;timestamp;pressure;altitude;pressure_sealevel;temperature;humidity
26697;BME280;14312;52.614;13.496;2023-05-29T00:00:51;101371.84;;;16.65;41.06
26697;BME280;14312;52.614;13.496;2023-05-29T00:03:38;101375.56;;;16.59;41.14
26697;BME280;14312;52.614;13.496;2023-05-29T00:06:24;101369.34;;;16.54;41.26
26697;BME280;14312;52.614;13.496;2023-05-29T00:09:10;101368.78;;;16.47;41.34
26697;BME280;14312;52.614;13.496;2023-05-29T00:11:56;101369.53;;;16.42;41.43
26697;BME280;14312;52.614;13.496;2023-05-29T00:14:42;101376.53;;;16.38;41.72
26697;BME280;14312;52.614;13.496;2023-05-29T00:17:27;101378.13;;;16.34;41.64
26697;BME280;14312;52.614;13.496;2023-05-29T00:20:14;101378.88;;;16.29;41.67
26697;BME280;14312;52.614;13.496;2023-05-29T00:23:00;101382.63;;;16.23;41.56
26697;BME280;14312;52.614;13.496;2023-05-29T00:25:47;101377.72;;;16.15;41.54
26697;BME280;14312;52.614;13.496;2023-05-29T00:28:34;101380.63;;;16.09;41.64
26697;BME280;14312;52.614;13.496;2023-05-29T00:31:21;101375.72;;;16.00;41.64
26697;BME280;14312;52.614;13.496;2023-05-29T00:34:07;101376.19;;;15.92;41.74
26697;BME280;14312;52.614;13.496;2023-05-29T00:36:53;101377.47;;;15.85;42.02
26697;BME280;14312;52.614;13.496;2023-05-29T00:39:41;101374.47;;;15.76;42.04
26697;BME280;14312;52.614;13.496;2023-05-29T00:42:27;101374.69;;;15.70;41.76
26697;BME280;14312;52.614;13.496;2023-05-29T00:45:12;101387.25;;;15.64;42.27
26697;BME280;14312;52.614;13.496;2023-05-29T00:47:58;101381.25;;;15.57;42.37
26697;BME280;14312;52.614;13.496;2023-05-29T00:50:45;101376.88;;;15.51;42.45
26697;BME280;14312;52.614;13.496;2023-05-29T00:53:31;101379.00;;;15.49;42.79
26697;BME280;14312;52.614;13.496;2023-05-29T00:56:18;101381.16;;;15.47;42.89
26697;BME280;14312;52.614;13.496;2023-05-29T00:59:06;101382.22;;;15.46;42.95
26697;BME280;14312;52.614;13.496;2023-05-29T01:01:53;101379.53;;;15.46;43.11
26697;BME280;14312;52.614;13.496;2023-05-29T01:04:40;101385.97;;;15.45;42.96
26697;BME280;14312;52.614;13.496;2023-05-29T01:07:26;101391.34;;;15.45;42.97
26697;BME280;14312;52.614;13.496;2023-05-29T01:10:12;101383.84;;;15.47;43.12
26697;BME280;14312;52.614;13.496;2023-05-29T01:18:51;101397.09;;;15.53;43.93
26697;BME280;14312;52.614;13.496;2023-05-29T01:22:46;101390.41;;;15.56;44.48
26697;BME280;14312;52.614;13.496;2023-05-29T01:25:19;101395.22;;;15.54;44.00
26697;BME280;14312;52.614;13.496;2023-05-29T01:28:08;101394.16;;;15.55;43.48
26697;BME280;14312;52.614;13.496;2023-05-29T01:30:56;101390.06;;;15.52;43.40
26697;BME280;14312;52.614;13.496;2023-05-29T01:33:51;101392.53;;;15.54;44.65
26697;BME280;14312;52.614;13.496;2023-05-29T01:36:37;101389.25;;;15.52;43.50
26697;BME280;14312;52.614;13.496;2023-05-29T01:39:24;101395.13;;;15.49;43.94
26697;BME280;14312;52.614;13.496;2023-05-29T01:42:11;101395.13;;;15.49;43.78
26697;BME280;14312;52.614;13.496;2023-05-29T01:44:58;101396.22;;;15.48;43.88
26697;BME280;14312;52.614;13.496;2023-05-29T01:47:44;101394.03;;;15.45;43.69
26697;BME280;14312;52.614;13.496;2023-05-29T01:50:31;101395.06;;;15.44;43.70
26697;BME280;14312;52.614;13.496;2023-05-29T01:53:17;101397.19;;;15.42;43.80
26697;BME280;14312;52.614;13.496;2023-05-29T01:56:05;101402.03;;;15.40;43.98
26697;BME280;14312;52.614;13.496;2023-05-29T01:58:51;101386.41;;;15.37;44.01
26697;BME280;14312;52.614;13.496;2023-05-29T02:01:38;101397.16;;;15.37;44.15
26697;BME280;14312;52.614;13.496;2023-05-29T02:04:24;101402.78;;;15.35;44.04
26697;BME280;14312;52.614;13.496;2023-05-29T02:07:10;101403.03;;;15.34;44.17
26697;BME280;14312;52.614;13.496;2023-05-29T02:09:57;101398.16;;;15.31;44.04
26697;BME280;14312;52.614;13.496;2023-05-29T02:12:43;101402.72;;;15.30;44.16
26697;BME280;14312;52.614;13.496;2023-05-29T02:15:29;101399.75;;;15.26;44.14
26697;BME280;14312;52.614;13.496;2023-05-29T02:18:15;101409.09;;;15.24;44.22
26697;BME280;14312;52.614;13.496;2023-05-29T02:21:03;101395.13;;;15.22;44.29
26697;BME280;14312;52.614;13.496;2023-05-29T02:23:48;101397.25;;;15.20;44.34
26697;BME280;14312;52.614;13.496;2023-05-29T02:26:35;101407.19;;;15.19;44.33
26697;BME280;14312;52.614;13.496;2023-05-29T02:29:22;101399.88;;;15.15;44.21
26697;BME280;14312;52.614;13.496;2023-05-29T02:32:08;101405.47;;;15.13;44.68
26697;BME280;14312;52.614;13.496;2023-05-29T02:34:54;101404.94;;;15.11;44.68
26697;BME280;14312;52.614;13.496;2023-05-29T02:37:40;101401.94;;;15.08;44.69
26697;BME280;14312;52.614;13.496;2023-05-29T02:40:26;101399.44;;;15.01;44.75
26697;BME280;14312;52.614;13.496;2023-05-29T02:43:12;101408.53;;;15.00;44.97
26697;BME280;14312;52.614;13.496;2023-05-29T02:45:59;101408.25;;;14.97;44.58
26697;BME280;14312;52.614;13.496;2023-05-29T02:48:44;101406.28;;;14.92;44.85
26697;BME280;14312;52.614;13.496;2023-05-29T02:51:31;101407.63;;;14.89;44.96
26697;BME280;14312;52.614;13.496;2023-05-29T02:54:18;101407.56;;;14.84;45.01
26697;BME280;14312;52.614;13.496;2023-05-29T02:57:04;101406.19;;;14.82;44.96
26697;BME280;14312;52.614;13.496;2023-05-29T02:59:50;101415.78;;;14.78;45.01
26697;BME280;14312;52.614;13.496;2023-05-29T03:02:37;101416.28;;;14.75;44.99
26697;BME280;14312;52.614;13.496;2023-05-29T03:05:23;101418.91;;;14.70;45.13
26697;BME280;14312;52.614;13.496;2023-05-29T03:08:08;101422.31;;;14.65;45.22
26697;BME280;14312;52.614;13.496;2023-05-29T03:10:56;101425.75;;;14.61;45.16
26697;BME280;14312;52.614;13.496;2023-05-29T03:13:42;101418.47;;;14.56;45.31
26697;BME280;14312;52.614;13.496;2023-05-29T03:16:28;101428.84;;;14.53;45.40
26697;BME280;14312;52.614;13.496;2023-05-29T03:19:15;101417.00;;;14.48;45.57
26697;BME280;14312;52.614;13.496;2023-05-29T03:22:01;101429.84;;;14.46;45.59
26697;BME280;14312;52.614;13.496;2023-05-29T03:24:46;101422.03;;;14.45;45.60
26697;BME280;14312;52.614;13.496;2023-05-29T03:27:32;101426.59;;;14.44;45.83
26697;BME280;14312;52.614;13.496;2023-05-29T03:30:18;101423.91;;;14.44;45.77
26697;BME280;14312;52.614;13.496;2023-05-29T03:33:06;101422.84;;;14.45;45.99
26697;BME280;14312;52.614;13.496;2023-05-29T03:35:52;101419.09;;;14.46;46.23
26697;BME280;14312;52.614;13.496;2023-05-29T03:38:38;101420.75;;;14.47;46.23
26697;BME280;14312;52.614;13.496;2023-05-29T03:41:24;101428.53;;;14.49;46.23
26697;BME280;14312;52.614;13.496;2023-05-29T03:44:11;101434.22;;;14.53;46.03
26697;BME280;14312;52.614;13.496;2023-05-29T03:46:57;101429.19;;;14.56;46.36
26697;BME280;14312;52.614;13.496;2023-05-29T03:49:43;101429.50;;;14.60;46.21
26697;BME280;14312;52.614;13.496;2023-05-29T03:52:29;101431.69;;;14.63;46.27
26697;BME280;14312;52.614;13.496;2023-05-29T03:55:16;101429.06;;;14.68;46.42
26697;BME280;14312;52.614;13.496;2023-05-29T03:58:02;101432.88;;;14.72;46.44
26697;BME280;14312;52.614;13.496;2023-05-29T04:00:48;101431.34;;;14.76;46.42
26697;BME280;14312;52.614;13.496;2023-05-29T04:03:33;101427.66;;;14.82;46.52
26697;BME280;14312;52.614;13.496;2023-05-29T04:06:20;101429.34;;;14.88;46.52
26697;BME280;14312;52.614;13.496;2023-05-29T04:09:07;101431.53;;;14.91;46.68
26697;BME280;14312;52.614;13.496;2023-05-29T04:11:55;101426.78;;;14.98;46.80
26697;BME280;14312;52.614;13.496;2023-05-29T04:14:41;101431.97;;;15.05;46.87
26697;BME280;14312;52.614;13.496;2023-05-29T04:17:26;101436.09;;;15.12;46.56
26697;BME280;14312;52.614;13.496;2023-05-29T04:20:12;101443.16;;;15.18;46.56
26697;BME280;14312;52.614;13.496;2023-05-29T04:22:58;101452.88;;;15.24;46.57
26697;BME280;14312;52.614;13.496;2023-05-29T04:25:44;101446.50;;;15.31;46.48
26697;BME280;14312;52.614;13.496;2023-05-29T04:28:30;101449.81;;;15.38;46.41
26697;BME280;14312;52.614;13.496;2023-05-29T04:31:16;101447.16;;;15.43;46.34
26697;BME280;14312;52.614;13.496;2023-05-29T04:34:03;101443.47;;;15.49;46.29
26697;BME280;14312;52.614;13.496;2023-05-29T04:36:50;101442.53;;;15.55;46.36
26697;BME280;14312;52.614;13.496;2023-05-29T04:39:36;101446.88;;;15.61;46.39
26697;BME280;14312;52.614;13.496;2023-05-29T04:42:22;101446.44;;;15.69;46.50
26697;BME280;14312;52.614;13.496;2023-05-29T04:45:08;101445.97;;;15.77;46.43
26697;BME280;14312;52.614;13.496;2023-05-29T04:47:56;101449.81;;;15.86;46.56
26697;BME280;14312;52.614;13.496;2023-05-29T04:50:42;101451.53;;;15.97;46.59
26697;BME280;14312;52.614;13.496;2023-05-29T04:53:28;101455.34;;;16.06;46.23
26697;BME280;14312;52.614;13.496;2023-05-29T04:56:14;101457.06;;;16.18;46.32
26697;BME280;14312;52.614;13.496;2023-05-29T04:59:00;101448.00;;;16.29;46.26
26697;BME280;14312;52.614;13.496;2023-05-29T05:01:46;101449.41;;;16.36;46.10
26697;BME280;14312;52.614;13.496;2023-05-29T05:04:33;101453.75;;;16.42;45.97
26697;BME280;14312;52.614;13.496;2023-05-29T05:07:19;101457.31;;;16.48;45.91
26697;BME280;14312;52.614;13.496;2023-05-29T05:10:05;101450.91;;;16.54;45.66
26697;BME280;14312;52.614;13.496;2023-05-29T05:12:52;101450.34;;;16.57;45.76
26697;BME280;14312;52.614;13.496;2023-05-29T05:15:38;101457.97;;;16.65;45.93
26697;BME280;14312;52.614;13.496;2023-05-29T05:18:23;101449.94;;;16.70;45.74
26697;BME280;14312;52.614;13.496;2023-05-29T05:21:09;101451.59;;;16.76;45.88
26697;BME280;14312;52.614;13.496;2023-05-29T05:23:56;101450.00;;;16.86;45.90
26697;BME280;14312;52.614;13.496;2023-05-29T05:26:42;101451.66;;;16.92;45.99
26697;BME280;14312;52.614;13.496;2023-05-29T05:29:28;101455.47;;;17.01;45.97
26697;BME280;14312;52.614;13.496;2023-05-29T05:32:14;101453.91;;;17.10;46.06
26697;BME280;14312;52.614;13.496;2023-05-29T05:35:00;101454.50;;;17.22;45.87
26697;BME280;14312;52.614;13.496;2023-05-29T05:37:46;101457.22;;;17.32;45.60
26697;BME280;14312;52.614;13.496;2023-05-29T05:40:32;101464.25;;;17.43;45.64
26697;BME280;14312;52.614;13.496;2023-05-29T05:43:18;101457.56;;;17.51;45.43
26697;BME280;14312;52.614;13.496;2023-05-29T05:46:04;101458.13;;;17.63;45.37
26697;BME280;14312;52.614;13.496;2023-05-29T05:48:50;101455.75;;;17.72;45.49
26697;BME280;14312;52.614;13.496;2023-05-29T05:51:37;101453.06;;;17.82;45.08
26697;BME280;14312;52.614;13.496;2023-05-29T05:54:23;101463.03;;;17.91;45.20
26697;BME280;14312;52.614;13.496;2023-05-29T05:57:10;101466.28;;;17.98;45.23
26697;BME280;14312;52.614;13.496;2023-05-29T05:59:56;101469.81;;;18.09;45.08
26697;BME280;14312;52.614;13.496;2023-05-29T06:02:43;101466.84;;;18.21;45.17
26697;BME280;14312;52.614;13.496;2023-05-29T06:05:30;101478.97;;;18.33;45.07
26697;BME280;14312;52.614;13.496;2023-05-29T06:08:16;101483.84;;;18.47;45.01
26697;BME280;14312;52.614;13.496;2023-05-29T06:11:02;101474.13;;;18.61;44.83
26697;BME280;14312;52.614;13.496;2023-05-29T06:13:48;101471.38;;;18.76;44.96
26697;BME280;14312;52.614;13.496;2023-05-29T06:16:34;101472.41;;;18.90;44.72
26697;BME280;14312;52.614;13.496;2023-05-29T06:19:20;101468.06;;;19.04;44.17
26697;BME280;14312;52.614;13.496;2023-05-29T06:22:06;101477.75;;;19.15;44.10
26697;BME280;14312;52.614;13.496;2023-05-29T06:24:52;101485.81;;;19.26;43.76
26697;BME280;14312;52.614;13.496;2023-05-29T06:27:38;101486.03;;;19.34;43.96
26697;BME280;14312;52.614;13.496;2023-05-29T06:30:24;101483.31;;;19.44;43.69
26697;BME280;14312;52.614;13.496;2023-05-29T06:33:10;101486.28;;;19.53;43.53
26697;BME280;14312;52.614;13.496;2023-05-29T06:35:55;101492.69;;;19.67;43.23
26697;BME280;14312;52.614;13.496;2023-05-29T06:38:48;101489.34;;;19.80;43.17
26697;BME280;14312;52.614;13.496;2023-05-29T06:41:34;101491.44;;;19.93;42.98
26697;BME280;14312;52.614;13.496;2023-05-29T06:44:20;101489.97;;;20.06;42.55
26697;BME280;14312;52.614;13.496;2023-05-29T06:47:06;101495.81;;;20.18;42.51
26697;BME280;14312;52.614;13.496;2023-05-29T06:49:53;101501.16;;;20.28;42.05
26697;BME280;14312;52.614;13.496;2023-05-29T06:52:39;101497.63;;;20.38;41.81
26697;BME280;14312;52.614;13.496;2023-05-29T06:55:25;101496.47;;;20.44;41.57
26697;BME280;14312;52.614;13.496;2023-05-29T06:58:11;101502.38;;;20.51;41.75
26697;BME280;14312;52.614;13.496;2023-05-29T07:04:24;101506.53;;;20.67;41.57
26697;BME280;14312;52.614;13.496;2023-05-29T07:07:10;101507.03;;;20.75;41.35
26697;BME280;14312;52.614;13.496;2023-05-29T07:09:56;101514.50;;;20.83;41.64
26697;BME280;14312;52.614;13.496;2023-05-29T07:12:41;101504.13;;;20.90;41.16
26697;BME280;14312;52.614;13.496;2023-05-29T07:15:27;101505.19;;;20.94;41.14
26697;BME280;14312;52.614;13.496;2023-05-29T07:18:13;101505.94;;;20.99;41.22
26697;BME280;14312;52.614;13.496;2023-05-29T07:21:00;101517.75;;;21.08;40.98
26697;BME280;14312;52.614;13.496;2023-05-29T07:23:46;101506.00;;;21.18;40.78
26697;BME280;14312;52.614;13.496;2023-05-29T07:26:32;101501.84;;;21.26;41.01
26697;BME280;14312;52.614;13.496;2023-05-29T07:29:18;101508.53;;;21.33;40.87
26697;BME280;14312;52.614;13.496;2023-05-29T07:32:06;101507.91;;;21.41;41.15
26697;BME280;14312;52.614;13.496;2023-05-29T07:34:52;101510.50;;;21.52;40.96
26697;BME280;14312;52.614;13.496;2023-05-29T07:37:38;101513.56;;;21.64;40.59
26697;BME280;14312;52.614;13.496;2023-05-29T07:40:24;101513.72;;;21.72;40.50
26697;BME280;14312;52.614;13.496;2023-05-29T07:43:10;101519.31;;;21.81;40.55
26697;BME280;14312;52.614;13.496;2023-05-29T07:45:55;101518.63;;;21.89;40.23
26697;BME280;14312;52.614;13.496;2023-05-29T07:48:41;101520.44;;;21.99;40.21
26697;BME280;14312;52.614;13.496;2023-05-29T07:51:27;101524.91;;;22.08;40.16
26697;BME280;14312;52.614;13.496;2023-05-29T07:54:13;101526.97;;;22.16;40.16
26697;BME280;14312;52.614;13.496;2023-05-29T07:57:03;101524.06;;;22.26;39.95
26697;BME280;14312;52.614;13.496;2023-05-29T07:59:49;101525.00;;;22.36;39.83
26697;BME280;14312;52.614;13.496;2023-05-29T08:02:35;101532.97;;;22.46;39.67
26697;BME280;14312;52.614;13.496;2023-05-29T08:05:22;101529.09;;;22.52;39.48
26697;BME280;14312;52.614;13.496;2023-05-29T08:08:07;101523.03;;;22.55;39.36
26697;BME280;14312;52.614;13.496;2023-05-29T08:10:53;101527.91;;;22.58;39.33
26697;BME280;14312;52.614;13.496;2023-05-29T08:13:39;101526.47;;;22.60;39.17
26697;BME280;14312;52.614;13.496;2023-05-29T08:16:25;101528.31;;;22.65;39.06
26697;BME280;14312;52.614;13.496;2023-05-29T08:19:12;101521.97;;;22.70;38.86
26697;BME280;14312;52.614;13.496;2023-05-29T08:21:58;101526.53;;;22.74;38.60
26697;BME280;14312;52.614;13.496;2023-05-29T08:24:44;101515.59;;;22.79;38.34
26697;BME280;14312;52.614;13.496;2023-05-29T08:27:30;101519.31;;;22.83;38.44
26697;BME280;14312;52.614;13.496;2023-05-29T08:30:16;101512.66;;;22.89;38.28
26697;BME280;14312;52.614;13.496;2023-05-29T08:33:03;101521.84;;;22.93;38.26
26697;BME280;14312;52.614;13.496;2023-05-29T08:35:49;101527.19;;;22.98;38.32
26697;BME280;14312;52.614;13.496;2023-05-29T08:38:35;101510.28;;;23.01;37.97
26697;BME280;14312;52.614;13.496;2023-05-29T08:41:33;101508.56;;;23.06;38.00
26697;BME280;14312;52.614;13.496;2023-05-29T08:44:22;101505.25;;;23.09;38.17
26697;BME280;14312;52.614;13.496;2023-05-29T08:47:10;101510.56;;;23.14;38.13
26697;BME280;14312;52.614;13.496;2023-05-29T08:50:01;101508.25;;;23.21;37.90
26697;BME280;14312;52.614;13.496;2023-05-29T08:52:48;101514.09;;;23.28;37.97
26697;BME280;14312;52.614;13.496;2023-05-29T08:55:35;101515.47;;;23.39;37.74
26697;BME280;14312;52.614;13.496;2023-05-29T08:58:22;101513.56;;;23.53;37.79
26697;BME280;14312;52.614;13.496;2023-05-29T09:01:08;101510.81;;;23.67;37.38
26697;BME280;14312;52.614;13.496;2023-05-29T09:03:54;101504.34;;;23.76;37.07
26697;BME280;14312;52.614;13.496;2023-05-29T09:06:40;101510.19;;;23.84;36.79
26697;BME280;14312;52.614;13.496;2023-05-29T09:09:26;101512.78;;;23.89;36.76
26697;BME280;14312;52.614;13.496;2023-05-29T09:12:14;101512.16;;;23.92;36.59
26697;BME280;14312;52.614;13.496;2023-05-29T09:15:00;101511.75;;;23.98;36.81
26697;BME280;14312;52.614;13.496;2023-05-29T09:17:51;101513.91;;;24.10;36.76
26697;BME280;14312;52.614;13.496;2023-05-29T09:20:37;101508.41;;;24.24;36.93
26697;BME280;14312;52.614;13.496;2023-05-29T09:23:25;101519.63;;;24.44;36.50
26697;BME280;14312;52.614;13.496;2023-05-29T09:26:14;101520.69;;;24.66;36.64
26697;BME280;14312;52.614;13.496;2023-05-29T09:29:00;101519.03;;;24.87;36.78
26697;BME280;14312;52.614;13.496;2023-05-29T09:31:47;101534.75;;;25.12;35.75
26697;BME280;14312;52.614;13.496;2023-05-29T09:34:33;101527.56;;;25.25;35.45
26697;BME280;14312;52.614;13.496;2023-05-29T09:37:19;101527.28;;;25.35;35.65
26697;BME280;14312;52.614;13.496;2023-05-29T09:40:10;101530.19;;;25.47;35.21
26697;BME280;14312;52.614;13.496;2023-05-29T09:43:02;101523.00;;;25.60;35.31
26697;BME280;14312;52.614;13.496;2023-05-29T09:45:50;101516.47;;;25.78;35.50
26697;BME280;14312;52.614;13.496;2023-05-29T09:48:36;101522.41;;;25.97;34.80
26697;BME280;14312;52.614;13.496;2023-05-29T09:51:22;101513.72;;;26.12;34.61
26697;BME280;14312;52.614;13.496;2023-05-29T09:54:16;101515.63;;;26.21;33.59
26697;BME280;14312;52.614;13.496;2023-05-29T09:57:03;101504.72;;;26.21;33.74
26697;BME280;14312;52.614;13.496;2023-05-29T09:59:50;101506.94;;;26.19;33.62
26697;BME280;14312;52.614;13.496;2023-05-29T10:02:39;101501.31;;;26.15;33.76
26697;BME280;14312;52.614;13.496;2023-05-29T10:05:25;101497.47;;;26.16;33.32
26697;BME280;14312;52.614;13.496;2023-05-29T10:08:13;101502.13;;;26.16;33.06
26697;BME280;14312;52.614;13.496;2023-05-29T10:11:00;101498.13;;;26.13;32.99
26697;BME280;14312;52.614;13.496;2023-05-29T10:13:52;101501.19;;;26.11;33.33
26697;BME280;14312;52.614;13.496;2023-05-29T10:16:41;101497.31;;;26.12;33.14
26697;BME280;14312;52.614;13.496;2023-05-29T10:19:29;101500.53;;;26.15;32.85
26697;BME280;14312;52.614;13.496;2023-05-29T10:22:19;101503.72;;;26.17;32.05
26697;BME280;14312;52.614;13.496;2023-05-29T10:25:09;101508.75;;;26.06;32.23
26697;BME280;14312;52.614;13.496;2023-05-29T10:27:56;101502.47;;;25.88;32.40
26697;BME280;14312;52.614;13.496;2023-05-29T10:30:49;101504.72;;;25.69;32.14
26697;BME280;14312;52.614;13.496;2023-05-29T10:33:41;101502.28;;;25.50;32.73
26697;BME280;14312;52.614;13.496;2023-05-29T10:36:35;101512.03;;;25.43;32.61
26697;BME280;14312;52.614;13.496;2023-05-29T10:39:22;101504.16;;;25.41;32.47
26697;BME280;14312;52.614;13.496;2023-05-29T10:42:40;101502.38;;;25.36;32.46
26697;BME280;14312;52.614;13.496;2023-05-29T10:50:59;101504.00;;;25.38;32.33
26697;BME280;14312;52.614;13.496;2023-05-29T10:53:45;101488.94;;;25.49;33.08
26697;BME280;14312;52.614;13.496;2023-05-29T10:56:32;101478.03;;;25.66;33.03
26697;BME280;14312;52.614;13.496;2023-05-29T10:59:18;101475.16;;;26.05;31.62
26697;BME280;14312;52.614;13.496;2023-05-29T11:02:04;101481.72;;;26.30;32.14
26697;BME280;14312;52.614;13.496;2023-05-29T11:07:53;101485.28;;;27.36;29.61
26697;BME280;14312;52.614;13.496;2023-05-29T11:13:35;101487.59;;;27.34;29.80
26697;BME280;14312;52.614;13.496;2023-05-29T11:19:19;101486.81;;;26.96;30.51
26697;BME280;14312;52.614;13.496;2023-05-29T11:22:12;101483.28;;;26.86;30.33
26697;BME280;14312;52.614;13.496;2023-05-29T11:25:05;101470.47;;;26.78;30.64
26697;BME280;14312;52.614;13.496;2023-05-29T11:27:51;101471.63;;;26.69;30.54
26697;BME280;14312;52.614;13.496;2023-05-29T11:30:42;101471.19;;;26.58;30.48
26697;BME280;14312;52.614;13.496;2023-05-29T11:33:28;101464.97;;;26.40;30.41
26697;BME280;14312;52.614;13.496;2023-05-29T11:36:17;101470.31;;;26.20;30.27
26697;BME280;14312;52.614;13.496;2023-05-29T11:39:05;101479.81;;;25.96;30.70
26697;BME280;14312;52.614;13.496;2023-05-29T11:41:51;101474.03;;;25.81;30.84
26697;BME280;14312;52.614;13.496;2023-05-29T11:44:38;101480.63;;;25.71;31.49
26697;BME280;14312;52.614;13.496;2023-05-29T11:47:24;101473.25;;;25.63;31.39
26697;BME280;14312;52.614;13.496;2023-05-29T11:50:21;101478.84;;;25.66;31.37
26697;BME280;14312;52.614;13.496;2023-05-29T11:53:07;101482.41;;;25.76;32.05
26697;BME280;14312;52.614;13.496;2023-05-29T11:56:06;101476.59;;;26.03;31.51
26697;BME280;14312;52.614;13.496;2023-05-29T11:58:53;101469.03;;;26.26;31.98
26697;BME280;14312;52.614;13.496;2023-05-29T12:01:43;101469.75;;;26.52;31.94
26697;BME280;14312;52.614;13.496;2023-05-29T12:04:29;101463.03;;;26.79;31.17
26697;BME280;14312;52.614;13.496;2023-05-29T12:07:18;101470.69;;;27.03;31.07
26697;BME280;14312;52.614;13.496;2023-05-29T12:10:16;101451.91;;;27.22;30.07
26697;BME280;14312;52.614;13.496;2023-05-29T12:13:02;101452.44;;;27.36;30.62
26697;BME280;14312;52.614;13.496;2023-05-29T12:15:49;101443.81;;;27.55;30.74
26697;BME280;14312;52.614;13.496;2023-05-29T12:18:37;101448.59;;;27.79;30.70
26697;BME280;14312;52.614;13.496;2023-05-29T12:21:23;101438.25;;;28.17;29.12
26697;BME280;14312;52.614;13.496;2023-05-29T12:24:10;101453.13;;;28.28;29.29
26697;BME280;14312;52.614;13.496;2023-05-29T12:26:57;101448.47;;;28.41;27.92
26697;BME280;14312;52.614;13.496;2023-05-29T12:29:43;101452.69;;;28.38;28.67
26697;BME280;14312;52.614;13.496;2023-05-29T12:32:39;101452.13;;;28.33;28.64
26697;BME280;14312;52.614;13.496;2023-05-29T12:35:27;101451.16;;;28.17;28.57
26697;BME280;14312;52.614;13.496;2023-05-29T12:38:14;101453.91;;;27.96;28.79
26697;BME280;14312;52.614;13.496;2023-05-29T12:41:00;101451.53;;;27.74;28.53
26697;BME280;14312;52.614;13.496;2023-05-29T12:43:46;101458.47;;;27.50;28.87
26697;BME280;14312;52.614;13.496;2023-05-29T12:46:37;101454.84;;;27.38;28.84
26697;BME280;14312;52.614;13.496;2023-05-29T12:49:23;101450.59;;;27.28;28.97
26697;BME280;14312;52.614;13.496;2023-05-29T12:52:11;101446.91;;;27.24;29.22
26697;BME280;14312;52.614;13.496;2023-05-29T12:54:57;101455.91;;;27.24;29.12
26697;BME280;14312;52.614;13.496;2023-05-29T12:57:43;101448.50;;;27.25;29.41
26697;BME280;14312;52.614;13.496;2023-05-29T13:00:33;101434.94;;;27.28;29.56
26697;BME280;14312;52.614;13.496;2023-05-29T13:03:19;101436.00;;;27.36;29.55
26697;BME280;14312;52.614;13.496;2023-05-29T13:06:06;101433.69;;;27.47;29.26
26697;BME280;14312;52.614;13.496;2023-05-29T13:08:52;101421.09;;;27.54;29.37
26697;BME280;14312;52.614;13.496;2023-05-29T13:11:38;101429.91;;;27.60;29.14
26697;BME280;14312;52.614;13.496;2023-05-29T13:14:24;101436.31;;;27.64;29.39
26697;BME280;14312;52.614;13.496;2023-05-29T13:17:10;101428.00;;;27.73;29.15
26697;BME280;14312;52.614;13.496;2023-05-29T13:19:56;101426.00;;;27.82;29.25
26697;BME280;14312;52.614;13.496;2023-05-29T13:22:44;101421.25;;;27.91;29.19
26697;BME280;14312;52.614;13.496;2023-05-29T13:25:30;101419.00;;;28.05;29.25
26697;BME280;14312;52.614;13.496;2023-05-29T13:28:16;101412.44;;;28.18;28.82
26697;BME280;14312;52.614;13.496;2023-05-29T13:31:02;101413.50;;;28.26;28.90
26697;BME280;14312;52.614;13.496;2023-05-29T13:33:48;101414.97;;;28.35;28.80
26697;BME280;14312;52.614;13.496;2023-05-29T13:36:34;101406.31;;;28.46;28.80
26697;BME280;14312;52.614;13.496;2023-05-29T13:39:21;101410.66;;;28.59;28.58
26697;BME280;14312;52.614;13.496;2023-05-29T13:42:08;101408.69;;;28.71;28.39
26697;BME280;14312;52.614;13.496;2023-05-29T13:44:54;101413.78;;;28.81;28.54
26697;BME280;14312;52.614;13.496;2023-05-29T13:47:40;101416.84;;;28.92;28.21
26697;BME280;14312;52.614;13.496;2023-05-29T13:50:26;101413.41;;;28.95;27.96
26697;BME280;14312;52.614;13.496;2023-05-29T13:53:12;101407.25;;;28.98;28.06
26697;BME280;14312;52.614;13.496;2023-05-29T13:55:58;101411.34;;;29.04;27.86
26697;BME280;14312;52.614;13.496;2023-05-29T13:58:44;101411.09;;;29.09;27.97
26697;BME280;14312;52.614;13.496;2023-05-29T14:01:30;101412.47;;;29.15;27.82
26697;BME280;14312;52.614;13.496;2023-05-29T14:04:16;101413.59;;;29.14;26.59
26697;BME280;14312;52.614;13.496;2023-05-29T14:07:02;101416.13;;;29.07;27.21
26697;BME280;14312;52.614;13.496;2023-05-29T14:09:48;101414.31;;;28.99;27.12
26697;BME280;14312;52.614;13.496;2023-05-29T14:12:34;101422.09;;;28.97;27.11
26697;BME280;14312;52.614;13.496;2023-05-29T14:15:20;101411.72;;;28.91;26.83
26697;BME280;14312;52.614;13.496;2023-05-29T14:18:06;101419.13;;;28.78;26.86
26697;BME280;14312;52.614;13.496;2023-05-29T14:20:53;101415.22;;;28.67;27.03
26697;BME280;14312;52.614;13.496;2023-05-29T14:23:39;101410.78;;;28.62;27.26
26697;BME280;14312;52.614;13.496;2023-05-29T14:26:25;101407.66;;;28.64;27.57
26697;BME280;14312;52.614;13.496;2023-05-29T14:29:11;101397.88;;;28.75;27.82
26697;BME280;14312;52.614;13.496;2023-05-29T14:31:58;101393.97;;;28.88;27.36
26697;BME280;14312;52.614;13.496;2023-05-29T14:34:44;101397.84;;;28.99;27.36
26697;BME280;14312;52.614;13.496;2023-05-29T14:37:30;101397.03;;;29.11;27.29
26697;BME280;14312;52.614;13.496;2023-05-29T14:40:16;101387.63;;;29.24;27.35
26697;BME280;14312;52.614;13.496;2023-05-29T14:43:02;101403.84;;;29.41;27.18
26697;BME280;14312;52.614;13.496;2023-05-29T14:45:49;101393.28;;;29.55;27.00